This is the latest recevied weather packets stored in our database for station/object N5ZP. If no packets are shown the sender has not sent any weather packets the latest 10 day(s).
| Time | Temp. | Humidity | Pressure | Rain* | Wind** | Luminosity | Snow |
|---|---|---|---|---|---|---|---|
| 1777655889 | 17.78° C | 61% | 1014.1 hPa | 0 mm | - | 350 W/m² | - |
| 1777655586 | 17.78° C | 64% | 1014.2 hPa | 0 mm | - | 379 W/m² | - |
| 1777655283 | 17.22° C | 67% | 1014.2 hPa | 0 mm | - | 481 W/m² | - |
| 1777654980 | 17.78° C | 65% | 1014.5 hPa | 0 mm | - | 358 W/m² | - |
| 1777654677 | 17.78° C | 67% | 1014.3 hPa | 0 mm | - | 466 W/m² | - |
| 1777654072 | 16.67° C | 72% | 1014.5 hPa | 0 mm | - | 520 W/m² | - |
| 1777653465 | 16.67° C | 69% | 1014.5 hPa | 0 mm | - | 309 W/m² | - |
| 1777653163 | 17.22° C | 69% | 1014.5 hPa | 0 mm | - | 317 W/m² | - |
| 1777652858 | 16.67° C | 73% | 1014.3 hPa | 0 mm | - | 617 W/m² | - |
| 1777652555 | 15.56° C | 72% | 1014.5 hPa | 0 mm | - | 375 W/m² | - |
| 1777652252 | 16.11° C | 71% | 1014.7 hPa | 0 mm | - | 292 W/m² | - |
| 1777651949 | 16.11° C | 73% | 1014.6 hPa | 0 mm | - | 538 W/m² | - |
| 1777651646 | 15.56° C | 74% | 1014.6 hPa | 0 mm | - | 293 W/m² | - |
| 1777651343 | 15.56° C | 74% | 1014.5 hPa | 0 mm | - | 283 W/m² | - |
| 1777651040 | 15.56° C | 75% | 1014.9 hPa | 0 mm | - | 261 W/m² | - |
| 1777650737 | 15° C | 75% | 1014.9 hPa | 0 mm | - | 221 W/m² | - |
| 1777650434 | 15° C | 76% | 1015.2 hPa | 0 mm | - | 161 W/m² | - |
| 1777650131 | 15° C | 78% | 1014.5 hPa | 0 mm | - | 247 W/m² | - |
| 1777649828 | 15° C | 79% | 1014.6 hPa | 0 mm | - | 180 W/m² | - |
| 1777649525 | 15° C | 80% | 1014.5 hPa | 0 mm | - | 231 W/m² | - |
| 1777649221 | 14.44° C | 82% | 1014.5 hPa | 0 mm | - | 248 W/m² | - |
| 1777648918 | 14.44° C | 83% | 1014.7 hPa | 0 mm | - | 161 W/m² | - |
| 1777648615 | 14.44° C | 84% | 1014.5 hPa | 0 mm | - | 127 W/m² | - |
| 1777648312 | 14.44° C | 85% | 1014.5 hPa | 0 mm | - | 88 W/m² | - |
| 1777648009 | 14.44° C | 85% | 1014.4 hPa | 0 mm | - | 81 W/m² | - |
* Rain latest hour (hover to see other rain measurements)
** Current wind speed in m/s (hover to see current wind gust speed)